sensor_id;sensor_type;location;lat;lon;timestamp;pressure;altitude;pressure_sealevel;temperature;humidity
70841;BME280;58465;51.534;9.934;2023-01-28T00:01:56;101049.44;;;3.15;68.90
70841;BME280;58465;51.534;9.934;2023-01-28T00:04:21;101054.59;;;3.10;69.26
70841;BME280;58465;51.534;9.934;2023-01-28T00:06:47;101053.44;;;2.97;69.26
70841;BME280;58465;51.534;9.934;2023-01-28T00:09:12;101048.00;;;2.91;69.49
70841;BME280;58465;51.534;9.934;2023-01-28T00:11:37;101044.50;;;2.92;69.46
70841;BME280;58465;51.534;9.934;2023-01-28T00:14:03;101046.03;;;2.83;69.75
70841;BME280;58465;51.534;9.934;2023-01-28T00:16:31;101045.03;;;2.78;70.23
70841;BME280;58465;51.534;9.934;2023-01-28T00:18:57;101043.03;;;2.69;70.27
70841;BME280;58465;51.534;9.934;2023-01-28T00:21:22;101043.91;;;2.68;70.50
70841;BME280;58465;51.534;9.934;2023-01-28T00:23:56;101038.88;;;2.77;70.03
70841;BME280;58465;51.534;9.934;2023-01-28T00:26:22;101045.28;;;2.88;69.76
70841;BME280;58465;51.534;9.934;2023-01-28T00:28:48;101041.22;;;3.03;69.28
70841;BME280;58465;51.534;9.934;2023-01-28T00:33:42;101044.00;;;3.07;69.17
70841;BME280;58465;51.534;9.934;2023-01-28T00:36:07;101043.94;;;3.06;69.07
70841;BME280;58465;51.534;9.934;2023-01-28T00:38:33;101033.44;;;3.07;69.22
70841;BME280;58465;51.534;9.934;2023-01-28T00:41:13;101040.34;;;3.02;69.03
70841;BME280;58465;51.534;9.934;2023-01-28T00:43:40;101026.97;;;2.94;69.03
70841;BME280;58465;51.534;9.934;2023-01-28T00:46:07;101031.94;;;2.82;69.55
70841;BME280;58465;51.534;9.934;2023-01-28T00:48:33;101033.38;;;2.68;69.65
70841;BME280;58465;51.534;9.934;2023-01-28T00:50:59;101031.25;;;2.55;70.00
70841;BME280;58465;51.534;9.934;2023-01-28T00:53:24;101026.69;;;2.48;70.29
70841;BME280;58465;51.534;9.934;2023-01-28T00:55:50;101031.91;;;2.46;70.52
70841;BME280;58465;51.534;9.934;2023-01-28T00:58:15;101035.97;;;2.34;70.62
70841;BME280;58465;51.534;9.934;2023-01-28T01:00:41;101037.72;;;2.33;70.48
70841;BME280;58465;51.534;9.934;2023-01-28T01:03:06;101032.41;;;2.32;70.53
70841;BME280;58465;51.534;9.934;2023-01-28T01:05:31;101023.41;;;2.23;70.87
70841;BME280;58465;51.534;9.934;2023-01-28T01:07:58;101030.25;;;2.17;71.19
70841;BME280;58465;51.534;9.934;2023-01-28T01:10:23;101032.69;;;2.09;71.06
70841;BME280;58465;51.534;9.934;2023-01-28T01:12:49;101028.19;;;2.05;71.11
70841;BME280;58465;51.534;9.934;2023-01-28T01:15:15;101043.91;;;2.02;70.97
70841;BME280;58465;51.534;9.934;2023-01-28T01:17:43;101042.84;;;1.96;71.11
70841;BME280;58465;51.534;9.934;2023-01-28T01:20:18;101038.56;;;1.99;71.02
70841;BME280;58465;51.534;9.934;2023-01-28T01:22:45;101034.81;;;1.91;71.10
70841;BME280;58465;51.534;9.934;2023-01-28T01:25:12;101035.72;;;1.92;70.98
70841;BME280;58465;51.534;9.934;2023-01-28T01:27:37;101043.53;;;1.89;71.02
70841;BME280;58465;51.534;9.934;2023-01-28T01:30:03;101042.59;;;1.86;71.04
70841;BME280;58465;51.534;9.934;2023-01-28T01:32:29;101053.06;;;1.85;71.12
70841;BME280;58465;51.534;9.934;2023-01-28T01:34:55;101050.63;;;1.91;71.24
70841;BME280;58465;51.534;9.934;2023-01-28T01:37:20;101047.06;;;1.89;71.06
70841;BME280;58465;51.534;9.934;2023-01-28T01:39:46;101057.44;;;1.84;71.13
70841;BME280;58465;51.534;9.934;2023-01-28T01:42:12;101061.81;;;1.84;71.19
70841;BME280;58465;51.534;9.934;2023-01-28T01:47:31;101065.19;;;1.78;71.33
70841;BME280;58465;51.534;9.934;2023-01-28T01:50:03;101065.22;;;1.80;71.24
70841;BME280;58465;51.534;9.934;2023-01-28T01:52:32;101063.41;;;1.77;71.46
70841;BME280;58465;51.534;9.934;2023-01-28T01:55:01;101067.81;;;1.78;71.38
70841;BME280;58465;51.534;9.934;2023-01-28T01:57:31;101069.19;;;1.66;71.66
70841;BME280;58465;51.534;9.934;2023-01-28T01:59:58;101067.41;;;1.65;71.97
70841;BME280;58465;51.534;9.934;2023-01-28T02:02:33;101058.75;;;1.69;71.95
70841;BME280;58465;51.534;9.934;2023-01-28T02:04:59;101057.88;;;1.68;71.93
70841;BME280;58465;51.534;9.934;2023-01-28T02:07:25;101056.06;;;1.67;71.96
70841;BME280;58465;51.534;9.934;2023-01-28T02:09:50;101060.59;;;1.71;72.05
70841;BME280;58465;51.534;9.934;2023-01-28T02:12:20;101057.75;;;1.65;71.81
70841;BME280;58465;51.534;9.934;2023-01-28T02:14:51;101063.84;;;1.63;72.12
70841;BME280;58465;51.534;9.934;2023-01-28T02:17:18;101059.28;;;1.57;72.18
70841;BME280;58465;51.534;9.934;2023-01-28T02:19:52;101066.22;;;1.55;72.41
70841;BME280;58465;51.534;9.934;2023-01-28T02:25:22;101074.34;;;1.61;72.24
70841;BME280;58465;51.534;9.934;2023-01-28T02:28:08;101066.50;;;1.64;72.22
70841;BME280;58465;51.534;9.934;2023-01-28T02:30:47;101073.50;;;1.64;72.06
70841;BME280;58465;51.534;9.934;2023-01-28T02:33:21;101078.78;;;1.64;72.19
70841;BME280;58465;51.534;9.934;2023-01-28T02:35:53;101076.16;;;1.64;72.12
70841;BME280;58465;51.534;9.934;2023-01-28T02:38:25;101077.94;;;1.65;72.15
70841;BME280;58465;51.534;9.934;2023-01-28T02:41:00;101076.44;;;1.73;71.96
70841;BME280;58465;51.534;9.934;2023-01-28T02:43:35;101084.50;;;1.79;72.08
70841;BME280;58465;51.534;9.934;2023-01-28T02:46:10;101086.69;;;1.94;71.84
70841;BME280;58465;51.534;9.934;2023-01-28T02:48:56;101090.00;;;2.16;71.23
70841;BME280;58465;51.534;9.934;2023-01-28T02:51:38;101093.00;;;2.30;70.66
70841;BME280;58465;51.534;9.934;2023-01-28T02:54:14;101089.69;;;2.37;70.16
70841;BME280;58465;51.534;9.934;2023-01-28T02:56:53;101094.22;;;2.43;69.97
70841;BME280;58465;51.534;9.934;2023-01-28T02:59:30;101097.00;;;2.47;69.67
70841;BME280;58465;51.534;9.934;2023-01-28T03:02:33;101096.34;;;2.56;69.69
70841;BME280;58465;51.534;9.934;2023-01-28T03:05:07;101107.00;;;2.60;69.29
70841;BME280;58465;51.534;9.934;2023-01-28T03:07:36;101103.56;;;2.63;68.93
70841;BME280;58465;51.534;9.934;2023-01-28T03:10:04;101103.41;;;2.57;69.11
70841;BME280;58465;51.534;9.934;2023-01-28T03:12:32;101098.28;;;2.63;68.83
70841;BME280;58465;51.534;9.934;2023-01-28T03:15:25;101103.69;;;2.69;68.80
70841;BME280;58465;51.534;9.934;2023-01-28T03:21:09;101095.72;;;2.66;68.65
70841;BME280;58465;51.534;9.934;2023-01-28T03:24:05;101101.25;;;2.75;68.45
70841;BME280;58465;51.534;9.934;2023-01-28T03:26:57;101104.06;;;2.83;68.49
70841;BME280;58465;51.534;9.934;2023-01-28T03:29:45;101097.84;;;2.81;68.32
70841;BME280;58465;51.534;9.934;2023-01-28T03:32:31;101100.44;;;2.79;68.10
70841;BME280;58465;51.534;9.934;2023-01-28T03:35:17;101101.56;;;2.87;68.29
70841;BME280;58465;51.534;9.934;2023-01-28T03:38:04;101105.91;;;2.85;67.96
70841;BME280;58465;51.534;9.934;2023-01-28T03:40:59;101102.47;;;2.89;67.74
70841;BME280;58465;51.534;9.934;2023-01-28T03:43:25;101109.16;;;2.75;68.29
70841;BME280;58465;51.534;9.934;2023-01-28T03:45:52;101116.28;;;2.79;68.17
70841;BME280;58465;51.534;9.934;2023-01-28T03:48:18;101112.97;;;2.86;68.07
70841;BME280;58465;51.534;9.934;2023-01-28T03:50:43;101107.75;;;2.88;68.02
70841;BME280;58465;51.534;9.934;2023-01-28T03:53:09;101114.16;;;2.99;67.88
70841;BME280;58465;51.534;9.934;2023-01-28T03:55:38;101113.44;;;3.05;67.78
70841;BME280;58465;51.534;9.934;2023-01-28T03:58:03;101110.00;;;3.09;67.74
70841;BME280;58465;51.534;9.934;2023-01-28T04:00:30;101112.66;;;3.10;67.42
70841;BME280;58465;51.534;9.934;2023-01-28T04:02:56;101114.38;;;3.08;67.63
70841;BME280;58465;51.534;9.934;2023-01-28T04:05:22;101114.38;;;3.07;67.79
70841;BME280;58465;51.534;9.934;2023-01-28T04:07:47;101109.03;;;3.05;67.83
70841;BME280;58465;51.534;9.934;2023-01-28T04:10:16;101113.13;;;2.92;68.24
70841;BME280;58465;51.534;9.934;2023-01-28T04:12:42;101103.59;;;2.97;67.87
70841;BME280;58465;51.534;9.934;2023-01-28T04:15:08;101109.00;;;3.04;67.86
70841;BME280;58465;51.534;9.934;2023-01-28T04:17:42;101106.41;;;3.05;67.69
70841;BME280;58465;51.534;9.934;2023-01-28T04:20:08;101110.75;;;3.03;67.75
70841;BME280;58465;51.534;9.934;2023-01-28T04:22:34;101109.03;;;3.05;67.49
70841;BME280;58465;51.534;9.934;2023-01-28T04:24:59;101112.56;;;3.06;67.50
70841;BME280;58465;51.534;9.934;2023-01-28T04:27:24;101105.56;;;3.08;67.49
70841;BME280;58465;51.534;9.934;2023-01-28T04:29:49;101105.69;;;3.12;67.18
70841;BME280;58465;51.534;9.934;2023-01-28T04:32:15;101110.06;;;3.12;66.92
70841;BME280;58465;51.534;9.934;2023-01-28T04:34:40;101107.41;;;3.10;66.84
70841;BME280;58465;51.534;9.934;2023-01-28T04:37:05;101106.53;;;3.11;65.89
70841;BME280;58465;51.534;9.934;2023-01-28T04:39:30;101104.94;;;3.16;65.06
70841;BME280;58465;51.534;9.934;2023-01-28T04:41:56;101105.00;;;3.21;64.74
70841;BME280;58465;51.534;9.934;2023-01-28T04:44:21;101111.31;;;3.26;64.46
70841;BME280;58465;51.534;9.934;2023-01-28T04:46:46;101110.44;;;3.27;64.02
70841;BME280;58465;51.534;9.934;2023-01-28T04:49:11;101106.88;;;3.25;63.67
70841;BME280;58465;51.534;9.934;2023-01-28T04:51:37;101114.69;;;3.20;63.01
70841;BME280;58465;51.534;9.934;2023-01-28T04:54:02;101109.53;;;3.25;63.00
70841;BME280;58465;51.534;9.934;2023-01-28T04:56:27;101113.53;;;3.09;62.15
70841;BME280;58465;51.534;9.934;2023-01-28T04:58:52;101118.94;;;3.14;61.02
70841;BME280;58465;51.534;9.934;2023-01-28T05:01:18;101118.75;;;3.08;60.35
70841;BME280;58465;51.534;9.934;2023-01-28T05:03:43;101118.97;;;3.15;60.38
70841;BME280;58465;51.534;9.934;2023-01-28T05:06:08;101113.84;;;3.21;60.27
70841;BME280;58465;51.534;9.934;2023-01-28T05:08:34;101122.69;;;3.23;60.21
70841;BME280;58465;51.534;9.934;2023-01-28T05:10:59;101130.31;;;3.11;60.06
70841;BME280;58465;51.534;9.934;2023-01-28T05:13:24;101130.13;;;3.04;60.12
70841;BME280;58465;51.534;9.934;2023-01-28T05:15:51;101125.81;;;3.09;59.65
70841;BME280;58465;51.534;9.934;2023-01-28T05:18:17;101124.88;;;3.05;58.98
70841;BME280;58465;51.534;9.934;2023-01-28T05:20:42;101127.53;;;3.05;59.02
70841;BME280;58465;51.534;9.934;2023-01-28T05:23:07;101124.75;;;3.01;59.15
70841;BME280;58465;51.534;9.934;2023-01-28T05:25:32;101130.75;;;2.93;58.96
70841;BME280;58465;51.534;9.934;2023-01-28T05:27:58;101129.53;;;2.81;59.56
70841;BME280;58465;51.534;9.934;2023-01-28T05:30:23;101125.22;;;2.84;58.72
70841;BME280;58465;51.534;9.934;2023-01-28T05:32:53;101129.97;;;2.99;58.00
70841;BME280;58465;51.534;9.934;2023-01-28T05:35:19;101138.78;;;2.99;58.41
70841;BME280;58465;51.534;9.934;2023-01-28T05:37:44;101137.28;;;3.09;58.40
70841;BME280;58465;51.534;9.934;2023-01-28T05:40:10;101140.91;;;3.13;57.62
70841;BME280;58465;51.534;9.934;2023-01-28T05:42:35;101128.50;;;3.10;58.47
70841;BME280;58465;51.534;9.934;2023-01-28T05:45:00;101132.63;;;2.97;58.26
70841;BME280;58465;51.534;9.934;2023-01-28T05:47:26;101132.53;;;2.94;58.79
70841;BME280;58465;51.534;9.934;2023-01-28T05:49:51;101135.00;;;2.88;58.66
70841;BME280;58465;51.534;9.934;2023-01-28T05:52:16;101128.19;;;2.96;58.72
70841;BME280;58465;51.534;9.934;2023-01-28T05:54:41;101133.56;;;3.01;58.74
70841;BME280;58465;51.534;9.934;2023-01-28T05:57:06;101140.63;;;3.02;58.33
70841;BME280;58465;51.534;9.934;2023-01-28T05:59:32;101134.53;;;3.05;58.71
70841;BME280;58465;51.534;9.934;2023-01-28T06:01:57;101142.34;;;3.00;58.55
70841;BME280;58465;51.534;9.934;2023-01-28T06:04:22;101143.97;;;2.95;58.29
70841;BME280;58465;51.534;9.934;2023-01-28T06:06:47;101136.09;;;2.96;57.95
70841;BME280;58465;51.534;9.934;2023-01-28T06:09:13;101146.75;;;3.01;57.92
70841;BME280;58465;51.534;9.934;2023-01-28T06:11:38;101150.25;;;3.00;58.20
70841;BME280;58465;51.534;9.934;2023-01-28T06:14:03;101155.28;;;2.91;58.16
70841;BME280;58465;51.534;9.934;2023-01-28T06:16:28;101141.06;;;2.84;58.36
70841;BME280;58465;51.534;9.934;2023-01-28T06:18:54;101142.94;;;2.90;58.28
70841;BME280;58465;51.534;9.934;2023-01-28T06:21:19;101152.75;;;2.94;58.01
70841;BME280;58465;51.534;9.934;2023-01-28T06:23:44;101155.25;;;2.89;57.76
70841;BME280;58465;51.534;9.934;2023-01-28T06:26:09;101156.38;;;2.97;58.08
70841;BME280;58465;51.534;9.934;2023-01-28T06:28:35;101154.63;;;2.99;58.03
70841;BME280;58465;51.534;9.934;2023-01-28T06:31:00;101160.50;;;2.88;57.46
70841;BME280;58465;51.534;9.934;2023-01-28T06:33:25;101163.25;;;2.92;57.61
70841;BME280;58465;51.534;9.934;2023-01-28T06:35:50;101169.94;;;2.80;57.71
70841;BME280;58465;51.534;9.934;2023-01-28T06:38:16;101173.31;;;2.74;57.47
70841;BME280;58465;51.534;9.934;2023-01-28T06:40:42;101173.56;;;2.83;57.17
70841;BME280;58465;51.534;9.934;2023-01-28T06:43:07;101175.47;;;2.89;56.67
70841;BME280;58465;51.534;9.934;2023-01-28T06:45:32;101170.28;;;2.92;56.73
70841;BME280;58465;51.534;9.934;2023-01-28T06:47:58;101160.41;;;2.85;57.19
70841;BME280;58465;51.534;9.934;2023-01-28T06:50:23;101168.34;;;2.85;56.80
70841;BME280;58465;51.534;9.934;2023-01-28T06:52:49;101174.31;;;2.79;56.91
70841;BME280;58465;51.534;9.934;2023-01-28T06:55:14;101181.47;;;2.83;56.59
70841;BME280;58465;51.534;9.934;2023-01-28T06:57:40;101183.13;;;2.80;56.77
70841;BME280;58465;51.534;9.934;2023-01-28T07:00:08;101178.25;;;2.93;56.42
70841;BME280;58465;51.534;9.934;2023-01-28T07:02:35;101172.91;;;2.92;56.14
70841;BME280;58465;51.534;9.934;2023-01-28T07:05:01;101176.31;;;2.86;56.45
70841;BME280;58465;51.534;9.934;2023-01-28T07:07:26;101188.47;;;2.81;56.50
70841;BME280;58465;51.534;9.934;2023-01-28T07:09:51;101184.22;;;2.86;56.94
70841;BME280;58465;51.534;9.934;2023-01-28T07:12:17;101178.09;;;2.87;56.40
70841;BME280;58465;51.534;9.934;2023-01-28T07:14:42;101183.59;;;2.96;56.31
70841;BME280;58465;51.534;9.934;2023-01-28T07:17:07;101180.22;;;3.02;55.96
70841;BME280;58465;51.534;9.934;2023-01-28T07:19:32;101181.06;;;3.01;56.11
70841;BME280;58465;51.534;9.934;2023-01-28T07:21:58;101179.28;;;3.00;56.04
70841;BME280;58465;51.534;9.934;2023-01-28T07:24:25;101177.53;;;3.01;56.10
70841;BME280;58465;51.534;9.934;2023-01-28T07:26:50;101183.91;;;3.09;56.07
70841;BME280;58465;51.534;9.934;2023-01-28T07:29:15;101188.28;;;3.08;55.76
70841;BME280;58465;51.534;9.934;2023-01-28T07:31:41;101180.25;;;3.04;55.26
70841;BME280;58465;51.534;9.934;2023-01-28T07:34:08;101171.56;;;3.08;55.58
70841;BME280;58465;51.534;9.934;2023-01-28T07:36:33;101178.91;;;3.19;55.51
70841;BME280;58465;51.534;9.934;2023-01-28T07:38:58;101171.88;;;3.20;54.99
70841;BME280;58465;51.534;9.934;2023-01-28T07:41:23;101170.94;;;3.18;54.68
70841;BME280;58465;51.534;9.934;2023-01-28T07:43:49;101172.28;;;2.69;55.29
70841;BME280;58465;51.534;9.934;2023-01-28T07:46:14;101168.50;;;2.58;55.95
70841;BME280;58465;51.534;9.934;2023-01-28T07:48:39;101174.38;;;2.48;56.24
70841;BME280;58465;51.534;9.934;2023-01-28T07:51:04;101177.94;;;2.50;56.39
70841;BME280;58465;51.534;9.934;2023-01-28T07:53:31;101188.94;;;2.67;55.88
70841;BME280;58465;51.534;9.934;2023-01-28T07:56:00;101182.59;;;2.60;55.88
70841;BME280;58465;51.534;9.934;2023-01-28T07:58:25;101187.06;;;2.63;55.86
70841;BME280;58465;51.534;9.934;2023-01-28T08:00:55;101182.28;;;2.81;55.22
70841;BME280;58465;51.534;9.934;2023-01-28T08:03:21;101184.28;;;2.89;55.54
70841;BME280;58465;51.534;9.934;2023-01-28T08:05:48;101184.28;;;2.89;55.32
70841;BME280;58465;51.534;9.934;2023-01-28T08:08:15;101179.47;;;3.08;55.12
70841;BME280;58465;51.534;9.934;2023-01-28T08:10:40;101184.22;;;3.21;55.04
70841;BME280;58465;51.534;9.934;2023-01-28T08:13:08;101180.88;;;3.28;54.96
70841;BME280;58465;51.534;9.934;2023-01-28T08:15:34;101189.59;;;3.24;54.75
70841;BME280;58465;51.534;9.934;2023-01-28T08:18:02;101185.31;;;3.29;54.67
70841;BME280;58465;51.534;9.934;2023-01-28T08:20:28;101194.16;;;3.31;54.91
70841;BME280;58465;51.534;9.934;2023-01-28T08:23:21;101200.25;;;3.28;54.70
70841;BME280;58465;51.534;9.934;2023-01-28T08:25:46;101202.84;;;3.27;54.44
70841;BME280;58465;51.534;9.934;2023-01-28T08:28:13;101201.09;;;3.27;54.69
70841;BME280;58465;51.534;9.934;2023-01-28T08:30:39;101198.69;;;3.35;54.59
70841;BME280;58465;51.534;9.934;2023-01-28T08:33:10;101202.53;;;3.49;54.73
70841;BME280;58465;51.534;9.934;2023-01-28T08:35:36;101200.56;;;3.41;53.55
70841;BME280;58465;51.534;9.934;2023-01-28T08:38:02;101198.06;;;3.45;53.17
70841;BME280;58465;51.534;9.934;2023-01-28T08:40:28;101208.84;;;3.56;52.91
70841;BME280;58465;51.534;9.934;2023-01-28T08:42:54;101210.22;;;3.75;52.99
70841;BME280;58465;51.534;9.934;2023-01-28T08:45:21;101202.84;;;3.61;52.91
70841;BME280;58465;51.534;9.934;2023-01-28T08:50:16;101212.38;;;3.56;52.80
70841;BME280;58465;51.534;9.934;2023-01-28T08:52:42;101217.25;;;3.74;52.50
70841;BME280;58465;51.534;9.934;2023-01-28T08:55:09;101214.91;;;3.88;52.42
70841;BME280;58465;51.534;9.934;2023-01-28T08:57:34;101217.03;;;3.65;52.53
70841;BME280;58465;51.534;9.934;2023-01-28T08:59:59;101224.19;;;3.70;51.76
70841;BME280;58465;51.534;9.934;2023-01-28T09:02:25;101235.56;;;3.68;52.30
70841;BME280;58465;51.534;9.934;2023-01-28T09:04:50;101240.34;;;3.83;51.90
70841;BME280;58465;51.534;9.934;2023-01-28T09:07:15;101247.25;;;3.78;52.26
70841;BME280;58465;51.534;9.934;2023-01-28T09:09:40;101251.19;;;3.59;52.50
70841;BME280;58465;51.534;9.934;2023-01-28T09:12:06;101254.09;;;3.69;51.85
70841;BME280;58465;51.534;9.934;2023-01-28T09:14:32;101244.97;;;3.57;52.78
70841;BME280;58465;51.534;9.934;2023-01-28T09:16:57;101253.94;;;3.29;53.07
70841;BME280;58465;51.534;9.934;2023-01-28T09:19:23;101260.03;;;3.25;53.16
70841;BME280;58465;51.534;9.934;2023-01-28T09:21:48;101258.81;;;3.45;52.53
70841;BME280;58465;51.534;9.934;2023-01-28T09:24:13;101260.81;;;3.55;52.66
70841;BME280;58465;51.534;9.934;2023-01-28T09:26:38;101265.13;;;3.52;52.61
70841;BME280;58465;51.534;9.934;2023-01-28T09:29:04;101274.38;;;3.34;52.31
70841;BME280;58465;51.534;9.934;2023-01-28T09:31:29;101272.44;;;3.29;52.76
70841;BME280;58465;51.534;9.934;2023-01-28T09:33:54;101274.50;;;3.41;52.81
70841;BME280;58465;51.534;9.934;2023-01-28T09:36:21;101279.75;;;3.39;52.91
70841;BME280;58465;51.534;9.934;2023-01-28T09:38:47;101279.03;;;3.45;52.99
70841;BME280;58465;51.534;9.934;2023-01-28T09:41:25;101281.28;;;3.65;52.83
70841;BME280;58465;51.534;9.934;2023-01-28T09:43:59;101279.72;;;3.72;52.72
70841;BME280;58465;51.534;9.934;2023-01-28T09:46:31;101282.19;;;3.66;52.18
70841;BME280;58465;51.534;9.934;2023-01-28T09:48:58;101278.13;;;3.44;52.32
70841;BME280;58465;51.534;9.934;2023-01-28T09:51:39;101290.16;;;3.33;53.38
70841;BME280;58465;51.534;9.934;2023-01-28T09:54:26;101283.03;;;3.30;53.19
70841;BME280;58465;51.534;9.934;2023-01-28T09:57:00;101290.88;;;3.26;53.23
70841;BME280;58465;51.534;9.934;2023-01-28T09:59:32;101295.19;;;3.24;52.61
70841;BME280;58465;51.534;9.934;2023-01-28T10:02:03;101294.25;;;3.22;53.00
70841;BME280;58465;51.534;9.934;2023-01-28T10:09:57;101292.59;;;3.25;52.75
70841;BME280;58465;51.534;9.934;2023-01-28T10:18:02;101306.00;;;3.33;52.90
70841;BME280;58465;51.534;9.934;2023-01-28T10:20:39;101309.84;;;3.44;52.12
70841;BME280;58465;51.534;9.934;2023-01-28T10:25:36;101289.22;;;3.64;51.37
70841;BME280;58465;51.534;9.934;2023-01-28T10:28:01;101289.16;;;3.98;50.54
70841;BME280;58465;51.534;9.934;2023-01-28T10:30:34;101294.16;;;4.22;49.59
70841;BME280;58465;51.534;9.934;2023-01-28T10:33:12;101295.59;;;4.47;49.11
70841;BME280;58465;51.534;9.934;2023-01-28T10:35:41;101288.00;;;4.64;48.37
70841;BME280;58465;51.534;9.934;2023-01-28T10:38:11;101290.94;;;4.77;48.02
70841;BME280;58465;51.534;9.934;2023-01-28T10:40:42;101291.78;;;4.75;47.71
70841;BME280;58465;51.534;9.934;2023-01-28T10:43:07;101290.91;;;4.76;48.01
70841;BME280;58465;51.534;9.934;2023-01-28T10:48:17;101289.06;;;5.15;47.27
70841;BME280;58465;51.534;9.934;2023-01-28T10:50:53;101282.59;;;5.01;47.41
70841;BME280;58465;51.534;9.934;2023-01-28T10:53:32;101278.34;;;5.08;47.27
70841;BME280;58465;51.534;9.934;2023-01-28T10:55:59;101284.50;;;5.07;47.49
70841;BME280;58465;51.534;9.934;2023-01-28T10:58:28;101273.81;;;5.04;47.95
70841;BME280;58465;51.534;9.934;2023-01-28T11:00:56;101289.00;;;4.69;47.73
70841;BME280;58465;51.534;9.934;2023-01-28T11:03:22;101292.16;;;4.51;48.36
70841;BME280;58465;51.534;9.934;2023-01-28T11:05:53;101287.06;;;4.60;48.66
70841;BME280;58465;51.534;9.934;2023-01-28T11:08:19;101290.66;;;4.64;48.60
70841;BME280;58465;51.534;9.934;2023-01-28T11:10:46;101292.28;;;4.57;48.55
70841;BME280;58465;51.534;9.934;2023-01-28T11:13:23;101284.09;;;4.46;48.67
70841;BME280;58465;51.534;9.934;2023-01-28T11:18:24;101277.13;;;4.50;49.75
70841;BME280;58465;51.534;9.934;2023-01-28T11:20:57;101277.69;;;4.35;49.44
70841;BME280;58465;51.534;9.934;2023-01-28T11:23:28;101277.72;;;4.37;49.61
70841;BME280;58465;51.534;9.934;2023-01-28T11:26:04;101267.50;;;4.15;49.81
70841;BME280;58465;51.534;9.934;2023-01-28T11:28:31;101261.03;;;4.00;50.13
70841;BME280;58465;51.534;9.934;2023-01-28T11:30:57;101263.41;;;3.90;50.21
70841;BME280;58465;51.534;9.934;2023-01-28T11:33:31;101264.44;;;3.96;50.33
70841;BME280;58465;51.534;9.934;2023-01-28T11:36:04;101260.25;;;4.06;50.26
70841;BME280;58465;51.534;9.934;2023-01-28T11:38:30;101259.03;;;4.29;49.72
70841;BME280;58465;51.534;9.934;2023-01-28T11:40:57;101255.53;;;4.30;50.07
70841;BME280;58465;51.534;9.934;2023-01-28T11:43:25;101249.63;;;4.43;49.88
70841;BME280;58465;51.534;9.934;2023-01-28T11:46:47;101250.56;;;4.45;49.79
70841;BME280;58465;51.534;9.934;2023-01-28T11:49:45;101256.72;;;4.44;50.07
70841;BME280;58465;51.534;9.934;2023-01-28T11:52:49;101249.84;;;4.53;49.49
70841;BME280;58465;51.534;9.934;2023-01-28T11:56:21;101243.00;;;4.64;48.92
70841;BME280;58465;51.534;9.934;2023-01-28T12:01:15;101254.03;;;4.41;49.68
70841;BME280;58465;51.534;9.934;2023-01-28T12:09:23;101253.91;;;4.77;49.24
70841;BME280;58465;51.534;9.934;2023-01-28T12:15:23;101267.72;;;4.64;49.45
70841;BME280;58465;51.534;9.934;2023-01-28T12:18:22;101264.50;;;4.37;49.80
70841;BME280;58465;51.534;9.934;2023-01-28T12:21:05;101260.41;;;4.53;49.99
70841;BME280;58465;51.534;9.934;2023-01-28T12:23:55;101254.06;;;4.44;50.16
70841;BME280;58465;51.534;9.934;2023-01-28T12:29:40;101246.69;;;4.28;50.36
70841;BME280;58465;51.534;9.934;2023-01-28T12:32:37;101242.94;;;4.19;50.99
70841;BME280;58465;51.534;9.934;2023-01-28T12:38:43;101253.59;;;4.22;50.49
70841;BME280;58465;51.534;9.934;2023-01-28T12:41:15;101259.81;;;4.25;50.62
70841;BME280;58465;51.534;9.934;2023-01-28T12:46:13;101252.75;;;4.23;50.38
70841;BME280;58465;51.534;9.934;2023-01-28T12:48:47;101253.59;;;4.23;50.27
70841;BME280;58465;51.534;9.934;2023-01-28T12:51:20;101243.22;;;4.31;50.12
70841;BME280;58465;51.534;9.934;2023-01-28T12:54:08;101238.91;;;4.36;50.12
70841;BME280;58465;51.534;9.934;2023-01-28T12:56:39;101241.97;;;4.56;49.82
70841;BME280;58465;51.534;9.934;2023-01-28T12:59:12;101233.97;;;4.53;49.14
70841;BME280;58465;51.534;9.934;2023-01-28T13:01:52;101226.03;;;4.51;49.13
70841;BME280;58465;51.534;9.934;2023-01-28T13:07:22;101222.72;;;4.21;50.07
70841;BME280;58465;51.534;9.934;2023-01-28T13:10:00;101224.63;;;4.28;49.97
70841;BME280;58465;51.534;9.934;2023-01-28T13:12:29;101222.72;;;4.21;50.40
70841;BME280;58465;51.534;9.934;2023-01-28T13:14:57;101212.38;;;4.31;49.99
70841;BME280;58465;51.534;9.934;2023-01-28T13:17:28;101209.56;;;4.25;50.24
70841;BME280;58465;51.534;9.934;2023-01-28T13:19:54;101216.53;;;4.20;50.56
70841;BME280;58465;51.534;9.934;2023-01-28T13:22:32;101221.88;;;4.23;50.11
70841;BME280;58465;51.534;9.934;2023-01-28T13:25:17;101223.41;;;4.14;49.92
70841;BME280;58465;51.534;9.934;2023-01-28T13:27:54;101216.91;;;4.38;49.53
70841;BME280;58465;51.534;9.934;2023-01-28T13:30:34;101212.78;;;4.51;48.79
70841;BME280;58465;51.534;9.934;2023-01-28T13:33:02;101227.38;;;4.32;49.10
70841;BME280;58465;51.534;9.934;2023-01-28T13:35:36;101220.31;;;4.31;48.65
70841;BME280;58465;51.534;9.934;2023-01-28T13:38:15;101203.50;;;4.29;49.10
70841;BME280;58465;51.534;9.934;2023-01-28T13:40:42;101189.09;;;4.57;48.60
70841;BME280;58465;51.534;9.934;2023-01-28T13:43:42;101173.72;;;4.84;47.94
70841;BME280;58465;51.534;9.934;2023-01-28T13:46:14;101175.72;;;4.96;47.66
70841;BME280;58465;51.534;9.934;2023-01-28T13:48:55;101181.28;;;5.11;47.42
70841;BME280;58465;51.534;9.934;2023-01-28T13:51:24;101171.53;;;5.09;47.31
70841;BME280;58465;51.534;9.934;2023-01-28T13:54:04;101159.16;;;5.08;46.79
70841;BME280;58465;51.534;9.934;2023-01-28T13:59:23;101133.56;;;4.59;48.11
70841;BME280;58465;51.534;9.934;2023-01-28T14:02:17;101144.25;;;4.20;48.86
70841;BME280;58465;51.534;9.934;2023-01-28T14:05:10;101144.63;;;3.97;49.32
70841;BME280;58465;51.534;9.934;2023-01-28T14:08:00;101132.34;;;3.99;50.09
70841;BME280;58465;51.534;9.934;2023-01-28T14:19:33;101179.94;;;4.40;50.75
70841;BME280;58465;51.534;9.934;2023-01-28T14:22:08;101183.72;;;4.54;48.37
70841;BME280;58465;51.534;9.934;2023-01-28T14:24:36;101189.06;;;4.56;48.33